createdAt,value
2019-04-20T00:00:55.084Z,101600.36
2019-04-20T00:03:58.891Z,101601.66
2019-04-20T00:07:01.940Z,101604.86
2019-04-20T00:10:10.969Z,101600.06
2019-04-20T00:13:21.514Z,101601.90
2019-04-20T00:16:14.674Z,101600.45
2019-04-20T00:19:24.322Z,101601.46
2019-04-20T00:22:24.668Z,101601.02
2019-04-20T00:25:41.791Z,101600.73
2019-04-20T00:28:51.242Z,101600.59
2019-04-20T00:31:49.261Z,101593.29
2019-04-20T00:34:43.297Z,101594.63
2019-04-20T00:37:44.562Z,101595.06
2019-04-20T00:40:49.678Z,101590.50
2019-04-20T00:43:51.664Z,101591.84
2019-04-20T00:47:04.316Z,101591.41
2019-04-20T00:50:13.693Z,101592.84
2019-04-20T00:53:12.446Z,101593.02
2019-04-20T00:56:05.501Z,101589.66
2019-04-20T00:59:20.549Z,101594.30
2019-04-20T01:02:25.691Z,101593.69
2019-04-20T01:05:55.729Z,101595.56
2019-04-20T01:08:40.197Z,101596.24
2019-04-20T01:11:45.494Z,101594.43
2019-04-20T01:14:52.103Z,101591.70
2019-04-20T01:17:50.147Z,101588.62
2019-04-20T01:20:52.014Z,101591.88
2019-04-20T01:23:58.624Z,101585.92
2019-04-20T01:27:00.840Z,101588.66
2019-04-20T01:30:10.764Z,101584.89
2019-04-20T01:33:24.345Z,101588.08
2019-04-20T01:36:35.085Z,101586.81
2019-04-20T01:39:25.366Z,101586.02
2019-04-20T01:42:19.180Z,101584.95
2019-04-20T01:45:28.894Z,101581.91
2019-04-20T01:48:28.684Z,101583.38
2019-04-20T01:51:37.704Z,101586.88
2019-04-20T01:54:59.167Z,101591.39
2019-04-20T01:58:00.151Z,101587.19
2019-04-20T02:00:48.679Z,101592.86
2019-04-20T02:04:00.201Z,101584.56
2019-04-20T02:07:04.703Z,101585.40
2019-04-20T02:10:09.778Z,101592.73
2019-04-20T02:13:11.189Z,101591.28
2019-04-20T02:16:22.888Z,101580.58
2019-04-20T02:19:31.284Z,101583.95
2019-04-20T02:22:38.287Z,101581.42
2019-04-20T02:25:25.019Z,101584.79
2019-04-20T02:28:53.906Z,101576.28
2019-04-20T02:35:09.354Z,101568.09
2019-04-20T02:38:21.791Z,101572.09
2019-04-20T02:41:17.441Z,101564.43
2019-04-20T02:47:33.761Z,101567.36
2019-04-20T02:50:30.416Z,101572.40
2019-04-20T02:53:55.609Z,101570.20
2019-04-20T02:56:39.439Z,101578.59
2019-04-20T03:02:27.518Z,101575.54
2019-04-20T03:05:29.740Z,101578.08
2019-04-20T03:08:42.301Z,101571.98
2019-04-20T03:11:52.965Z,101572.41
2019-04-20T03:14:44.951Z,101573.85
2019-04-20T03:17:57.457Z,101575.33
2019-04-20T03:21:04.576Z,101571.24
2019-04-20T03:24:06.973Z,101578.47
2019-04-20T03:27:09.618Z,101583.51
2019-04-20T03:31:15.740Z,101575.83
2019-04-20T03:34:05.674Z,101576.13
2019-04-20T03:36:47.202Z,101578.02
2019-04-20T03:39:40.760Z,101580.34
2019-04-20T03:42:28.893Z,101577.61
2019-04-20T03:45:41.596Z,101584.00
2019-04-20T03:48:56.263Z,101585.33
2019-04-20T03:52:06.974Z,101588.50
2019-04-20T03:55:01.464Z,101585.78
2019-04-20T03:58:20.550Z,101588.09
2019-04-20T04:01:55.527Z,101581.50
2019-04-20T04:04:39.010Z,101593.59
2019-04-20T04:07:30.528Z,101591.72
2019-04-20T04:10:36.382Z,101587.88
2019-04-20T04:13:29.093Z,101593.45
2019-04-20T04:16:37.231Z,101597.88
2019-04-20T04:19:39.716Z,101604.03
2019-04-20T04:22:56.462Z,101593.68
2019-04-20T04:26:00.772Z,101590.92
2019-04-20T04:29:08.294Z,101590.98
2019-04-20T04:32:21.159Z,101595.19
2019-04-20T04:35:10.419Z,101592.91
2019-04-20T04:38:24.077Z,101588.72
2019-04-20T04:41:24.299Z,101593.30
2019-04-20T04:44:19.881Z,101586.11
2019-04-20T04:47:12.142Z,101591.95
2019-04-20T04:50:18.288Z,101593.18
2019-04-20T04:53:30.367Z,101587.61
2019-04-20T04:56:24.938Z,101603.88
2019-04-20T04:59:26.030Z,101602.23
2019-04-20T05:02:34.900Z,101601.91
2019-04-20T05:05:49.188Z,101599.86
2019-04-20T05:08:43.742Z,101601.03
2019-04-20T05:11:42.662Z,101609.57
2019-04-20T05:14:56.881Z,101598.84
2019-04-20T05:18:06.175Z,101607.55
2019-04-20T05:21:17.555Z,101603.10
2019-04-20T05:24:22.654Z,101595.42
2019-04-20T05:27:33.504Z,101598.84
2019-04-20T05:30:16.029Z,101605.31
2019-04-20T05:33:27.778Z,101604.60
2019-04-20T05:36:41.282Z,101600.23
2019-04-20T05:39:45.763Z,101593.58
2019-04-20T05:43:07.917Z,101602.78
2019-04-20T05:46:18.204Z,101600.19
2019-04-20T05:49:22.066Z,101595.11
2019-04-20T05:52:35.092Z,101599.55
2019-04-20T05:55:25.681Z,101601.62
2019-04-20T05:58:26.193Z,101593.72
2019-04-20T06:01:39.704Z,101601.79
2019-04-20T06:04:55.959Z,101600.71
2019-04-20T06:07:42.355Z,101610.54
2019-04-20T06:10:46.617Z,101608.17
2019-04-20T06:13:47.134Z,101601.55
2019-04-20T06:17:11.129Z,101600.83
2019-04-20T06:20:12.643Z,101602.28
2019-04-20T06:23:33.282Z,101606.27
2019-04-20T06:26:43.431Z,101605.92
2019-04-20T06:29:38.013Z,101605.75
2019-04-20T06:33:26.708Z,101603.19
2019-04-20T06:36:27.647Z,101604.66
2019-04-20T06:39:30.884Z,101609.67
2019-04-20T06:42:34.293Z,101608.31
2019-04-20T06:45:45.787Z,101604.56
2019-04-20T06:48:50.042Z,101605.00
2019-04-20T06:51:47.678Z,101605.13
2019-04-20T06:54:58.167Z,101605.32
2019-04-20T06:58:12.694Z,101605.63
2019-04-20T07:01:11.068Z,101599.73
2019-04-20T07:04:36.196Z,101607.33
2019-04-20T07:07:21.189Z,101601.34
2019-04-20T07:10:28.490Z,101600.01
2019-04-20T07:13:17.605Z,101595.10
2019-04-20T07:16:36.291Z,101605.01
2019-04-20T07:19:56.423Z,101595.87
2019-04-20T07:26:15.352Z,101595.22
2019-04-20T07:29:15.521Z,101587.93
2019-04-20T07:32:11.640Z,101582.21
2019-04-20T07:35:21.708Z,101577.86
2019-04-20T07:38:40.174Z,101573.77
2019-04-20T07:41:32.975Z,101578.20
2019-04-20T07:44:35.328Z,101582.25
2019-04-20T07:47:41.148Z,101581.61
2019-04-20T07:50:29.573Z,101586.11
2019-04-20T07:53:36.664Z,101582.13
2019-04-20T07:56:49.499Z,101579.73
2019-04-20T07:59:45.017Z,101584.03
2019-04-20T08:03:11.446Z,101586.47
2019-04-20T08:06:02.295Z,101585.56
2019-04-20T08:09:12.824Z,101581.44
2019-04-20T08:12:25.922Z,101581.80
2019-04-20T08:15:38.066Z,101571.41
2019-04-20T08:18:32.316Z,101573.83
2019-04-20T08:21:36.163Z,101570.35
2019-04-20T08:24:37.685Z,101578.19
2019-04-20T08:27:27.631Z,101572.91
2019-04-20T08:31:05.150Z,101573.06
2019-04-20T08:34:31.270Z,101567.70
2019-04-20T08:37:25.753Z,101565.61
2019-04-20T08:40:40.311Z,101563.45
2019-04-20T08:43:47.050Z,101559.27
2019-04-20T08:46:53.648Z,101554.85
2019-04-20T08:50:11.609Z,101550.52
2019-04-20T08:53:20.467Z,101547.73
2019-04-20T08:56:05.926Z,101547.32
2019-04-20T08:58:57.390Z,101542.77
2019-04-20T09:02:05.158Z,101546.30
2019-04-20T09:05:13.499Z,101537.45
2019-04-20T09:08:17.961Z,101536.56
2019-04-20T09:11:34.574Z,101529.09
2019-04-20T09:14:23.416Z,101534.02
2019-04-20T09:17:36.912Z,101524.90
2019-04-20T09:20:45.886Z,101526.91
2019-04-20T09:23:53.399Z,101519.75
2019-04-20T09:26:57.274Z,101522.42
2019-04-20T09:30:00.216Z,101520.09
2019-04-20T09:33:09.630Z,101512.27
2019-04-20T09:36:10.311Z,101511.23
2019-04-20T09:39:11.525Z,101506.33
2019-04-20T09:42:12.110Z,101505.58
2019-04-20T09:45:23.239Z,101507.48
2019-04-20T09:48:31.326Z,101505.84
2019-04-20T09:51:40.243Z,101495.94
2019-04-20T09:54:48.305Z,101494.83
2019-04-20T09:57:52.904Z,101497.77
2019-04-20T10:00:53.927Z,101490.59
2019-04-20T10:03:44.952Z,101486.69
2019-04-20T10:06:47.669Z,101486.17
2019-04-20T10:09:50.352Z,101482.34
2019-04-20T10:12:54.214Z,101482.61
2019-04-20T10:15:57.631Z,101485.63
2019-04-20T10:19:00.741Z,101479.50
2019-04-20T10:22:04.556Z,101484.31
2019-04-20T10:25:06.939Z,101472.45
2019-04-20T10:28:09.465Z,101473.00
2019-04-20T10:31:12.741Z,101481.04
2019-04-20T10:34:15.816Z,101479.58
2019-04-20T10:37:19.830Z,101478.66
2019-04-20T10:40:38.034Z,101467.87
2019-04-20T10:43:26.099Z,101466.46
2019-04-20T10:46:28.941Z,101462.05
2019-04-20T10:49:31.532Z,101458.34
2019-04-20T10:52:33.930Z,101454.91
2019-04-20T10:55:37.637Z,101444.28
2019-04-20T10:58:40.133Z,101452.52
2019-04-20T11:01:45.568Z,101442.73
2019-04-20T11:04:48.522Z,101451.38
2019-04-20T11:07:50.781Z,101451.74
2019-04-20T11:11:03.515Z,101443.50
2019-04-20T11:14:00.751Z,101447.63
2019-04-20T11:17:02.576Z,101440.28
2019-04-20T11:20:07.470Z,101445.12
2019-04-20T11:23:10.766Z,101451.16
2019-04-20T11:26:14.068Z,101442.65
2019-04-20T11:29:16.497Z,101443.28
2019-04-20T11:32:18.438Z,101439.75
2019-04-20T11:35:30.128Z,101435.89
2019-04-20T11:38:24.380Z,101430.60
2019-04-20T11:41:30.392Z,101434.58
2019-04-20T11:44:31.609Z,101432.22
2019-04-20T11:47:35.390Z,101428.03
2019-04-20T11:50:37.848Z,101421.27
2019-04-20T11:53:40.451Z,101430.41
2019-04-20T11:56:45.767Z,101421.60
2019-04-20T11:59:47.292Z,101415.67
2019-04-20T12:03:00.544Z,101414.49
2019-04-20T12:06:06.301Z,101413.17
2019-04-20T12:09:08.338Z,101411.22
2019-04-20T12:12:22.406Z,101410.80
2019-04-20T12:15:14.759Z,101402.23
2019-04-20T12:18:17.915Z,101401.41
2019-04-20T12:21:21.026Z,101389.12
2019-04-20T12:24:24.378Z,101391.84
2019-04-20T12:27:27.007Z,101393.24
2019-04-20T12:30:30.002Z,101388.73
2019-04-20T12:33:32.649Z,101392.50
2019-04-20T12:36:35.325Z,101389.11
2019-04-20T12:39:37.679Z,101385.14
2019-04-20T12:42:41.004Z,101385.25
2019-04-20T12:45:44.126Z,101379.07
2019-04-20T12:48:47.456Z,101367.53
2019-04-20T12:51:54.657Z,101373.13
2019-04-20T12:54:54.540Z,101362.52
2019-04-20T12:57:57.013Z,101360.38
2019-04-20T13:00:58.902Z,101355.03
2019-04-20T13:04:02.959Z,101344.06
2019-04-20T13:07:05.910Z,101345.97
2019-04-20T13:10:09.848Z,101350.91
2019-04-20T13:13:16.815Z,101348.19
2019-04-20T13:16:30.376Z,101339.93
2019-04-20T13:19:33.287Z,101342.42
2019-04-20T13:22:36.814Z,101349.59
2019-04-20T13:25:39.324Z,101338.23
2019-04-20T13:28:42.960Z,101334.43
2019-04-20T13:31:45.364Z,101331.47
2019-04-20T13:34:49.956Z,101329.48
2019-04-20T13:37:52.069Z,101324.23
2019-04-20T13:40:54.105Z,101321.16
2019-04-20T13:43:59.281Z,101310.22
2019-04-20T13:47:00.889Z,101313.58
2019-04-20T13:50:07.234Z,101310.03
2019-04-20T13:53:11.582Z,101314.43
2019-04-20T13:56:14.912Z,101303.31
2019-04-20T13:59:32.074Z,101302.39
2019-04-20T14:02:40.383Z,101300.33
2019-04-20T14:05:44.453Z,101300.41
2019-04-20T14:08:47.386Z,101287.81
2019-04-20T14:11:49.546Z,101293.38
2019-04-20T14:14:51.586Z,101284.16
2019-04-20T14:17:55.257Z,101282.02
2019-04-20T14:21:00.390Z,101279.22
2019-04-20T14:24:04.197Z,101276.26
2019-04-20T14:27:06.636Z,101275.01
2019-04-20T14:30:09.076Z,101273.19
2019-04-20T14:33:11.147Z,101270.44
2019-04-20T14:36:13.157Z,101266.80
2019-04-20T14:39:16.197Z,101267.21
2019-04-20T14:42:33.113Z,101262.52
2019-04-20T14:45:24.756Z,101257.88
2019-04-20T14:48:26.897Z,101263.17
2019-04-20T14:51:29.905Z,101254.28
2019-04-20T14:54:31.940Z,101257.20
2019-04-20T14:57:35.397Z,101260.75
2019-04-20T15:00:54.959Z,101253.69
2019-04-20T15:04:04.885Z,101248.67
2019-04-20T15:07:02.488Z,101240.36
2019-04-20T15:10:06.951Z,101249.74
2019-04-20T15:13:10.178Z,101241.37
2019-04-20T15:16:15.040Z,101246.35
2019-04-20T15:19:18.991Z,101237.59
2019-04-20T15:22:41.349Z,101235.07
2019-04-20T15:25:44.481Z,101236.39
2019-04-20T15:28:48.321Z,101236.84
2019-04-20T15:31:50.484Z,101229.48
2019-04-20T15:34:53.050Z,101233.60
2019-04-20T15:37:55.386Z,101223.37
2019-04-20T15:40:57.723Z,101229.11
2019-04-20T15:43:59.643Z,101227.33
2019-04-20T15:47:01.642Z,101222.47
2019-04-20T15:50:07.706Z,101218.84
2019-04-20T15:53:11.247Z,101224.67
2019-04-20T15:56:14.461Z,101227.23
2019-04-20T15:59:16.837Z,101226.27
2019-04-20T16:02:21.130Z,101219.69
2019-04-20T16:05:35.459Z,101218.42
2019-04-20T16:08:38.952Z,101220.70
2019-04-20T16:11:41.300Z,101220.35
2019-04-20T16:14:43.886Z,101216.77
2019-04-20T16:17:50.840Z,101222.48
2019-04-20T16:20:58.160Z,101215.00
2019-04-20T16:23:56.948Z,101213.36
2019-04-20T16:27:18.038Z,101206.11
2019-04-20T16:30:21.018Z,101216.39
2019-04-20T16:33:24.163Z,101205.20
2019-04-20T16:36:26.411Z,101209.44
2019-04-20T16:39:28.448Z,101203.63
2019-04-20T16:42:30.395Z,101203.63
2019-04-20T16:45:32.976Z,101197.36
2019-04-20T16:48:35.960Z,101197.36
2019-04-20T16:51:38.856Z,101200.28
2019-04-20T16:54:41.783Z,101202.98
2019-04-20T16:57:46.653Z,101202.98
2019-04-20T17:00:47.819Z,101197.13
2019-04-20T17:03:59.790Z,101194.30
2019-04-20T17:07:10.278Z,101190.84
2019-04-20T17:10:15.901Z,101187.50
2019-04-20T17:13:30.408Z,101187.29
2019-04-20T17:16:23.722Z,101191.69
2019-04-20T17:19:25.999Z,101183.78
2019-04-20T17:22:28.060Z,101183.70
2019-04-20T17:25:30.183Z,101189.22
2019-04-20T17:28:52.469Z,101190.05
2019-04-20T17:32:08.047Z,101187.98
2019-04-20T17:35:21.522Z,101187.31
2019-04-20T17:38:16.348Z,101191.62
2019-04-20T17:41:42.962Z,101186.45
2019-04-20T17:44:39.194Z,101189.67
2019-04-20T17:47:47.991Z,101192.33
2019-04-20T17:50:55.628Z,101190.83
2019-04-20T17:53:52.887Z,101194.33
2019-04-20T17:56:49.360Z,101195.85
2019-04-20T17:59:58.702Z,101195.73
2019-04-20T18:03:18.601Z,101198.29
2019-04-20T18:06:27.778Z,101198.92
2019-04-20T18:09:43.328Z,101201.02
2019-04-20T18:12:26.854Z,101200.85
2019-04-20T18:15:36.371Z,101209.21
2019-04-20T18:18:42.033Z,101210.08
2019-04-20T18:21:41.103Z,101212.35
2019-04-20T18:25:02.620Z,101217.11
2019-04-20T18:28:04.619Z,101217.98
2019-04-20T18:30:59.050Z,101212.78
2019-04-20T18:34:07.008Z,101210.84
2019-04-20T18:37:28.395Z,101212.28
2019-04-20T18:40:51.314Z,101214.00
2019-04-20T18:43:50.787Z,101212.41
2019-04-20T18:47:13.889Z,101212.50
2019-04-20T18:50:04.403Z,101208.36
2019-04-20T18:52:58.316Z,101207.02
2019-04-20T18:56:02.632Z,101212.32
2019-04-20T18:59:05.207Z,101214.59
2019-04-20T19:02:16.207Z,101221.27
2019-04-20T19:05:13.698Z,101219.91
2019-04-20T19:08:17.486Z,101216.59
2019-04-20T19:11:21.714Z,101217.21
2019-04-20T19:14:34.917Z,101224.41
2019-04-20T19:17:59.124Z,101223.33
2019-04-20T19:21:11.068Z,101216.42
2019-04-20T19:24:18.306Z,101216.47
2019-04-20T19:27:23.066Z,101215.65
2019-04-20T19:30:34.276Z,101210.94
2019-04-20T19:33:38.881Z,101213.70
2019-04-20T19:36:38.987Z,101213.97
2019-04-20T19:39:49.428Z,101209.84
2019-04-20T19:42:59.367Z,101208.19
2019-04-20T19:46:29.377Z,101208.73
2019-04-20T19:49:01.114Z,101216.18
2019-04-20T19:52:24.966Z,101210.91
2019-04-20T19:55:14.434Z,101211.18
2019-04-20T19:58:18.804Z,101213.36
2019-04-20T20:01:07.003Z,101200.38
2019-04-20T20:04:10.109Z,101213.31
2019-04-20T20:07:22.257Z,101207.78
2019-04-20T20:10:20.809Z,101202.20
2019-04-20T20:13:27.393Z,101202.42
2019-04-20T20:16:33.690Z,101198.51
2019-04-20T20:19:54.559Z,101204.83
2019-04-20T20:22:39.582Z,101200.63
2019-04-20T20:25:42.451Z,101201.97
2019-04-20T20:28:47.632Z,101198.06
2019-04-20T20:31:58.166Z,101197.98
2019-04-20T20:34:56.003Z,101205.38
2019-04-20T20:37:57.884Z,101204.78
2019-04-20T20:41:10.070Z,101208.88
2019-04-20T20:44:05.747Z,101209.09
2019-04-20T20:47:31.361Z,101211.78
2019-04-20T20:50:42.741Z,101207.57
2019-04-20T20:53:21.863Z,101206.40
2019-04-20T20:56:25.089Z,101206.02
2019-04-20T20:59:36.074Z,101207.29
2019-04-20T21:02:43.482Z,101205.50
2019-04-20T21:05:33.541Z,101209.30
2019-04-20T21:08:42.808Z,101205.93
2019-04-20T21:11:40.285Z,101206.11
2019-04-20T21:14:43.700Z,101202.75
2019-04-20T21:18:09.094Z,101206.78
2019-04-20T21:21:10.218Z,101202.03
2019-04-20T21:24:03.185Z,101207.75
2019-04-20T21:27:06.726Z,101205.23
2019-04-20T21:30:05.684Z,101203.80
2019-04-20T21:33:11.591Z,101206.48
2019-04-20T21:36:19.218Z,101200.63
2019-04-20T21:39:32.415Z,101192.30
2019-04-20T21:42:26.271Z,101190.00
2019-04-20T21:45:31.178Z,101198.41
2019-04-20T21:48:43.935Z,101193.30
2019-04-20T21:51:44.343Z,101206.37
2019-04-20T21:54:38.236Z,101205.06
2019-04-20T21:57:47.355Z,101205.44
2019-04-20T22:01:07.259Z,101215.15
2019-04-20T22:03:58.547Z,101215.25
2019-04-20T22:07:00.631Z,101210.66
2019-04-20T22:10:07.082Z,101205.86
2019-04-20T22:13:09.967Z,101210.25
2019-04-20T22:16:14.543Z,101209.32
2019-04-20T22:19:33.682Z,101203.14
2019-04-20T22:22:39.791Z,101201.44
2019-04-20T22:25:42.534Z,101203.59
2019-04-20T22:28:27.761Z,101205.23
2019-04-20T22:31:29.951Z,101198.31
2019-04-20T22:34:33.735Z,101200.23
2019-04-20T22:38:03.634Z,101202.10
2019-04-20T22:41:03.820Z,101195.19
2019-04-20T22:44:11.602Z,101202.19
2019-04-20T22:47:13.895Z,101202.11
2019-04-20T22:50:28.917Z,101205.09
2019-04-20T22:53:29.425Z,101200.38
2019-04-20T22:56:34.157Z,101201.03
2019-04-20T22:59:30.369Z,101198.44
2019-04-20T23:02:28.072Z,101191.70
2019-04-20T23:05:30.986Z,101194.49
2019-04-20T23:08:33.375Z,101192.00
2019-04-20T23:11:36.800Z,101192.73
2019-04-20T23:14:40.383Z,101195.86
2019-04-20T23:17:45.922Z,101188.70
2019-04-20T23:20:47.939Z,101187.05
2019-04-20T23:23:53.688Z,101177.95
2019-04-20T23:26:55.280Z,101179.39
2019-04-20T23:29:58.565Z,101178.98
2019-04-20T23:33:02.170Z,101183.44
2019-04-20T23:36:05.087Z,101177.19
2019-04-20T23:39:08.661Z,101174.23
2019-04-20T23:42:14.426Z,101172.70
2019-04-20T23:45:35.456Z,101173.36
2019-04-20T23:48:38.830Z,101172.63
2019-04-20T23:51:59.281Z,101177.26
2019-04-20T23:54:49.029Z,101172.18
2019-04-20T23:57:46.105Z,101176.69
